Time;durP1;ratioP1;P1;durP2;ratioP2;P2;SDS_P1;SDS_P2;PMS_P1;PMS_P2;Temp;Humidity;BMP_temperature;BMP_pressure;BME280_temperature;BME280_humidity;BME280_pressure;Samples;Min_cycle;Max_cycle;Signal;HPM_P1;HPM_P2
2023/02/27 00:00:42;;;;;;;21.55;3.40;;;;;;;;;;5042659;28;20486;-76
2023/02/27 00:03:08;;;;;;;19.50;3.90;;;;;;;;;;5036199;28;20147;-76
2023/02/27 00:05:34;;;;;;;13.20;3.03;;;;;;;;;;5031390;28;20475;-77
2023/02/27 00:08:01;;;;;;;17.35;3.65;;;;;;;;;;5031501;28;20028;-78
2023/02/27 00:10:27;;;;;;;19.52;3.60;;;;;;;;;;5030638;28;20017;-78
2023/02/27 00:12:53;;;;;;;19.15;3.78;;;;;;;;;;5032734;28;20134;-78
2023/02/27 00:15:19;;;;;;;19.10;4.20;;;;;;;;;;5032387;28;20048;-78
2023/02/27 00:17:45;;;;;;;18.52;4.45;;;;;;;;;;5025735;28;20140;-78
2023/02/27 00:20:13;;;;;;;17.60;4.15;;;;;;;;;;5031091;28;20024;-78
2023/02/27 00:22:39;;;;;;;24.58;5.00;;;;;;;;;;5031285;28;20021;-78
2023/02/27 00:25:06;;;;;;;19.90;4.18;;;;;;;;;;5030651;28;20029;-77
2023/02/27 00:27:33;;;;;;;20.67;4.40;;;;;;;;;;5030762;28;20521;-77
2023/02/27 00:29:59;;;;;;;19.75;3.83;;;;;;;;;;5029998;28;20028;-77
2023/02/27 00:32:26;;;;;;;20.17;4.30;;;;;;;;;;5034843;28;20527;-77
2023/02/27 00:34:52;;;;;;;17.00;3.75;;;;;;;;;;5036131;28;20131;-78
2023/02/27 00:37:18;;;;;;;18.55;3.00;;;;;;;;;;5032863;28;20131;-77
2023/02/27 00:39:44;;;;;;;19.80;3.40;;;;;;;;;;5031726;28;20032;-78
2023/02/27 00:42:10;;;;;;;17.02;3.30;;;;;;;;;;5038433;28;20061;-76
2023/02/27 00:44:37;;;;;;;20.02;3.58;;;;;;;;;;5034628;28;20021;-77
2023/02/27 00:47:03;;;;;;;;;;;;;;;;;;5035785;28;20725;-77
2023/02/27 00:49:29;;;;;;;15.38;3.47;;;;;;;;;;5033514;28;19971;-77
2023/02/27 00:51:55;;;;;;;17.08;3.38;;;;;;;;;;5036625;28;20565;-77
2023/02/27 00:54:22;;;;;;;16.92;3.78;;;;;;;;;;5036027;28;20112;-76
2023/02/27 00:56:48;;;;;;;16.00;2.97;;;;;;;;;;5032858;28;20040;-76
2023/02/27 00:59:14;;;;;;;18.63;3.85;;;;;;;;;;5036316;28;20021;-77
2023/02/27 01:01:41;;;;;;;16.35;2.90;;;;;;;;;;5033653;28;20839;-77
2023/02/27 01:04:07;;;;;;;17.63;3.40;;;;;;;;;;5038166;28;20066;-78
2023/02/27 01:06:33;;;;;;;21.55;3.88;;;;;;;;;;5028484;28;20766;-77
2023/02/27 01:08:59;;;;;;;17.85;3.25;;;;;;;;;;5036166;28;20254;-76
2023/02/27 01:11:25;;;;;;;19.77;3.45;;;;;;;;;;5031967;28;20399;-75
2023/02/27 01:13:52;;;;;;;22.05;3.75;;;;;;;;;;5035152;28;20068;-76
2023/02/27 01:16:18;;;;;;;17.85;3.70;;;;;;;;;;5034689;28;20037;-77
2023/02/27 01:18:44;;;;;;;17.88;3.25;;;;;;;;;;5035283;28;20338;-75
2023/02/27 01:21:10;;;;;;;19.88;3.22;;;;;;;;;;5033509;28;20997;-77
2023/02/27 01:23:36;;;;;;;15.95;3.03;;;;;;;;;;5029977;28;20459;-76
2023/02/27 01:26:03;;;;;;;17.77;3.20;;;;;;;;;;5035205;28;20441;-76
2023/02/27 01:28:29;;;;;;;15.10;3.03;;;;;;;;;;5033751;28;20574;-76
2023/02/27 01:30:55;;;;;;;16.17;3.65;;;;;;;;;;5028655;28;20470;-76
2023/02/27 01:33:22;;;;;;;17.10;3.35;;;;;;;;;;5033573;28;20032;-76
2023/02/27 01:35:48;;;;;;;14.82;3.20;;;;;;;;;;5031450;28;20045;-76
2023/02/27 01:38:14;;;;;;;17.13;3.28;;;;;;;;;;5028857;28;20021;-76
2023/02/27 01:40:41;;;;;;;18.33;3.60;;;;;;;;;;5028692;28;20143;-76
2023/02/27 01:43:12;;;;;;;18.25;3.88;;;;;;;;;;5027835;28;20025;-77
2023/02/27 01:45:42;;;;;;;23.70;3.22;;;;;;;;;;5024854;28;20388;-77
2023/02/27 01:48:12;;;;;;;16.48;3.40;;;;;;;;;;5029080;28;20029;-77
2023/02/27 01:50:41;;;;;;;18.80;3.08;;;;;;;;;;5026894;28;20177;-76
2023/02/27 01:53:08;;;;;;;16.08;3.53;;;;;;;;;;5026153;28;20025;-76
2023/02/27 01:55:36;;;;;;;20.65;3.38;;;;;;;;;;5026451;28;20073;-77
2023/02/27 01:58:04;;;;;;;17.27;3.17;;;;;;;;;;5030277;28;20055;-78
2023/02/27 02:00:30;;;;;;;19.80;3.25;;;;;;;;;;5024496;28;20029;-76
2023/02/27 02:03:00;;;;;;;13.30;2.65;;;;;;;;;;5025314;28;20833;-76
2023/02/27 02:05:27;;;;;;;21.08;3.45;;;;;;;;;;5023273;28;20390;-77
2023/02/27 02:07:53;;;;;;;;;;;;;;;;;;5030489;28;20055;-77
2023/02/27 02:10:20;;;;;;;22.20;3.60;;;;;;;;;;5030051;28;19912;-76
2023/02/27 02:12:47;;;;;;;13.05;3.53;;;;;;;;;;5025711;28;20577;-77
2023/02/27 02:15:13;;;;;;;;;;;;;;;;;;5027235;28;20155;-76
2023/02/27 02:17:46;;;;;;;18.13;3.20;;;;;;;;;;5029582;28;20803;-76
2023/02/27 02:20:16;;;;;;;14.43;2.95;;;;;;;;;;5027700;28;20155;-76
2023/02/27 02:22:45;;;;;;;20.95;3.75;;;;;;;;;;5027401;28;20754;-76
2023/02/27 02:25:30;;;;;;;18.35;3.25;;;;;;;;;;5028612;28;20076;-76
2023/02/27 02:28:04;;;;;;;15.82;3.22;;;;;;;;;;5030851;28;20033;-76
2023/02/27 02:30:49;;;;;;;18.38;3.42;;;;;;;;;;5033153;28;20226;-76
2023/02/27 02:33:21;;;;;;;19.27;3.67;;;;;;;;;;5029419;28;20059;-75
2023/02/27 02:36:06;;;;;;;15.80;2.95;;;;;;;;;;5029934;28;20060;-76
2023/02/27 02:38:44;;;;;;;19.15;3.42;;;;;;;;;;5026890;28;20558;-76
2023/02/27 02:41:18;;;;;;;18.58;3.42;;;;;;;;;;5032975;28;20028;-76
2023/02/27 02:44:03;;;;;;;16.20;2.85;;;;;;;;;;5027226;28;20032;-76
2023/02/27 02:46:29;;;;;;;21.75;3.28;;;;;;;;;;5024348;28;20917;-75
2023/02/27 02:49:00;;;;;;;19.38;3.17;;;;;;;;;;5033885;28;20145;-75
2023/02/27 02:51:39;;;;;;;16.60;3.35;;;;;;;;;;5026055;28;20033;-76
2023/02/27 02:54:09;;;;;;;18.20;2.80;;;;;;;;;;5031142;28;20076;-76
2023/02/27 02:56:56;;;;;;;13.75;2.53;;;;;;;;;;5026289;28;20086;-76
2023/02/27 02:59:58;;;;;;;20.08;3.13;;;;;;;;;;5027863;28;20040;-76
2023/02/27 03:02:26;;;;;;;16.55;2.90;;;;;;;;;;5014715;28;20032;-76
2023/02/27 03:04:58;;;;;;;16.42;2.92;;;;;;;;;;5018434;28;20060;-75
2023/02/27 03:07:35;;;;;;;15.57;2.50;;;;;;;;;;5015894;28;20044;-75
2023/02/27 03:10:01;;;;;;;;;;;;;;;;;;5038935;28;20044;-76
2023/02/27 03:12:29;;;;;;;20.17;3.53;;;;;;;;;;5033002;28;19938;-76
2023/02/27 03:15:01;;;;;;;16.58;3.00;;;;;;;;;;5036747;28;20045;-76
2023/02/27 03:17:33;;;;;;;11.20;2.90;;;;;;;;;;5016763;28;20500;-75
2023/02/27 03:20:02;;;;;;;14.60;3.15;;;;;;;;;;5039187;28;20495;-75
2023/02/27 03:22:31;;;;;;;14.68;3.05;;;;;;;;;;5019779;28;20032;-76
2023/02/27 03:24:58;;;;;;;15.73;3.03;;;;;;;;;;5035521;28;20032;-77
2023/02/27 03:27:28;;;;;;;20.35;2.65;;;;;;;;;;5016589;28;20036;-77
2023/02/27 03:29:59;;;;;;;19.23;3.55;;;;;;;;;;5033290;28;20051;-77
2023/02/27 03:32:33;;;;;;;16.83;2.70;;;;;;;;;;5015097;28;20102;-76
2023/02/27 03:34:59;;;;;;;12.18;2.72;;;;;;;;;;5035652;28;20065;-75
2023/02/27 03:37:49;;;;;;;17.60;3.35;;;;;;;;;;5030472;28;20465;-76
2023/02/27 03:40:39;;;;;;;15.77;3.85;;;;;;;;;;5029646;28;20109;-75
2023/02/27 03:43:28;;;;;;;18.70;3.03;;;;;;;;;;5034498;28;20024;-76
2023/02/27 03:45:54;;;;;;;15.98;2.75;;;;;;;;;;5032471;28;20033;-76
2023/02/27 03:48:21;;;;;;;15.75;3.00;;;;;;;;;;5029272;28;20135;-75
2023/02/27 03:50:47;;;;;;;15.48;2.47;;;;;;;;;;5026723;28;20028;-76
2023/02/27 03:53:21;;;;;;;12.57;3.03;;;;;;;;;;5028309;28;20514;-76
2023/02/27 03:55:48;;;;;;;17.88;2.85;;;;;;;;;;5030069;28;20135;-76
2023/02/27 03:58:14;;;;;;;16.15;2.88;;;;;;;;;;5029267;28;20475;-76
2023/02/27 04:00:40;;;;;;;21.58;3.10;;;;;;;;;;5026748;28;20661;-76
2023/02/27 04:03:07;;;;;;;16.35;3.05;;;;;;;;;;5030436;28;20037;-76
2023/02/27 04:05:33;;;;;;;14.13;2.95;;;;;;;;;;5026489;28;20055;-76
2023/02/27 04:07:59;;;;;;;;;;;;;;;;;;5032330;28;20028;-76
2023/02/27 04:10:25;;;;;;;14.30;2.88;;;;;;;;;;5028705;28;19939;-76
2023/02/27 04:13:01;;;;;;;10.45;2.33;;;;;;;;;;5032566;28;20025;-76
2023/02/27 04:15:39;;;;;;;12.35;2.45;;;;;;;;;;5032446;28;20071;-76
2023/02/27 04:18:14;;;;;;;15.50;2.80;;;;;;;;;;5034085;28;20024;-76
2023/02/27 04:20:45;;;;;;;15.90;2.80;;;;;;;;;;5029460;28;20032;-76
2023/02/27 04:23:43;;;;;;;17.95;3.00;;;;;;;;;;5032393;28;20037;-76
2023/02/27 04:26:30;;;;;;;22.75;3.50;;;;;;;;;;5014857;28;20072;-76
2023/02/27 04:29:03;;;;;;;17.65;2.88;;;;;;;;;;5019502;28;20041;-75
2023/02/27 04:31:32;;;;;;;16.67;2.80;;;;;;;;;;5018220;28;20028;-77
2023/02/27 04:34:08;;;;;;;13.30;2.75;;;;;;;;;;5019686;28;20273;-77
2023/02/27 04:36:41;;;;;;;15.82;3.00;;;;;;;;;;5012359;28;20045;-76
2023/02/27 04:39:09;;;;;;;19.55;3.10;;;;;;;;;;5036072;28;20032;-76
2023/02/27 04:41:42;;;;;;;13.20;2.65;;;;;;;;;;5016854;28;20043;-76
2023/02/27 04:44:10;;;;;;;18.80;2.25;;;;;;;;;;5033299;28;20043;-75
2023/02/27 04:46:38;;;;;;;18.73;2.78;;;;;;;;;;5030087;28;20032;-76
2023/02/27 04:49:08;;;;;;;15.13;2.55;;;;;;;;;;5014961;28;20048;-76
2023/02/27 04:51:45;;;;;;;14.20;2.80;;;;;;;;;;5017320;28;20033;-77
2023/02/27 04:54:17;;;;;;;18.98;3.00;;;;;;;;;;5016273;28;20632;-76
2023/02/27 04:56:49;;;;;;;10.52;2.28;;;;;;;;;;5031389;28;20064;-76
2023/02/27 04:59:18;;;;;;;15.57;2.50;;;;;;;;;;5033484;28;20033;-76
2023/02/27 05:01:47;;;;;;;15.73;3.22;;;;;;;;;;5020324;28;20033;-76
2023/02/27 05:04:15;;;;;;;15.75;2.60;;;;;;;;;;5032943;28;20489;-76
2023/02/27 05:06:43;;;;;;;14.55;2.80;;;;;;;;;;5033678;28;20513;-75
2023/02/27 05:09:29;;;;;;;13.32;2.45;;;;;;;;;;5035429;28;20509;-76
2023/02/27 05:11:56;;;;;;;15.45;2.70;;;;;;;;;;5035215;28;20377;-77
2023/02/27 05:14:42;;;;;;;14.90;3.00;;;;;;;;;;5033316;28;20033;-74
2023/02/27 05:17:11;;;;;;;22.48;3.15;;;;;;;;;;5032638;28;20040;-75
2023/02/27 05:19:39;;;;;;;14.25;2.60;;;;;;;;;;5029629;28;20033;-76
2023/02/27 05:22:22;;;;;;;12.85;2.70;;;;;;;;;;5032749;28;20024;-76
2023/02/27 05:24:49;;;;;;;18.83;3.35;;;;;;;;;;5033981;28;20321;-75
2023/02/27 05:27:34;;;;;;;18.13;2.90;;;;;;;;;;5032629;28;20062;-75
2023/02/27 05:30:18;;;;;;;12.52;2.85;;;;;;;;;;5038221;28;20115;-76
2023/02/27 05:32:50;;;;;;;14.98;3.13;;;;;;;;;;5027964;28;20474;-75
2023/02/27 05:35:24;;;;;;;14.25;3.10;;;;;;;;;;5032932;28;20071;-75
2023/02/27 05:38:11;;;;;;;10.52;2.30;;;;;;;;;;5032129;28;20044;-76
2023/02/27 05:40:40;;;;;;;12.02;2.72;;;;;;;;;;5031469;28;20028;-76
2023/02/27 05:43:25;;;;;;;14.05;2.70;;;;;;;;;;5022213;28;20569;-62
2023/02/27 05:45:55;;;;;;;18.40;2.65;;;;;;;;;;5029975;28;20092;-62
2023/02/27 05:48:24;;;;;;;17.50;3.03;;;;;;;;;;5032152;28;20028;-62
2023/02/27 05:50:52;;;;;;;10.88;2.38;;;;;;;;;;5033987;28;20484;-64
2023/02/27 05:53:20;;;;;;;11.95;2.80;;;;;;;;;;5032736;28;20075;-62
2023/02/27 05:55:48;;;;;;;18.15;3.78;;;;;;;;;;5030383;28;20055;-63
2023/02/27 05:58:32;;;;;;;20.52;4.55;;;;;;;;;;5031233;28;20551;-62
2023/02/27 06:01:00;;;;;;;17.17;3.38;;;;;;;;;;5030075;28;20066;-63
2023/02/27 06:03:27;;;;;;;14.07;2.85;;;;;;;;;;5031698;28;20102;-64
2023/02/27 06:05:54;;;;;;;21.08;3.90;;;;;;;;;;5030695;28;20559;-64
2023/02/27 06:08:20;;;;;;;;;;;;;;;;;;5032278;28;20036;-62
2023/02/27 06:10:48;;;;;;;13.93;3.05;;;;;;;;;;5029948;28;19919;-62
2023/02/27 06:13:15;;;;;;;16.63;3.17;;;;;;;;;;5029663;28;20028;-64
2023/02/27 06:15:42;;;;;;;14.10;3.17;;;;;;;;;;5027152;28;20143;-62
2023/02/27 06:18:09;;;;;;;18.58;2.83;;;;;;;;;;5029433;28;21159;-64
2023/02/27 06:20:35;;;;;;;11.77;2.70;;;;;;;;;;5029455;28;20025;-62
2023/02/27 06:23:02;;;;;;;15.30;2.83;;;;;;;;;;5029944;28;20046;-65
2023/02/27 06:25:28;;;;;;;13.85;2.67;;;;;;;;;;5030961;28;20090;-62
2023/02/27 06:27:54;;;;;;;15.60;2.90;;;;;;;;;;5031689;28;20124;-64
2023/02/27 06:30:20;;;;;;;15.27;3.17;;;;;;;;;;5029045;28;20320;-62
2023/02/27 06:32:46;;;;;;;11.23;2.45;;;;;;;;;;5030380;28;20024;-63
2023/02/27 06:35:13;;;;;;;11.05;2.88;;;;;;;;;;5032410;28;20045;-62
2023/02/27 06:37:39;;;;;;;17.27;3.72;;;;;;;;;;5028223;28;20596;-62
2023/02/27 06:40:10;;;;;;;12.90;2.92;;;;;;;;;;5031544;28;20045;-62
2023/02/27 06:42:37;;;;;;;15.32;3.03;;;;;;;;;;5028113;28;20537;-62
2023/02/27 06:45:03;;;;;;;13.18;3.28;;;;;;;;;;5031138;28;20410;-64
2023/02/27 06:47:29;;;;;;;14.88;3.75;;;;;;;;;;5028007;28;20553;-62
2023/02/27 06:49:56;;;;;;;17.83;3.80;;;;;;;;;;5032263;28;20047;-62
2023/02/27 06:52:22;;;;;;;11.75;2.67;;;;;;;;;;5028210;28;20553;-63
2023/02/27 06:54:48;;;;;;;13.90;2.80;;;;;;;;;;5029034;28;20125;-62
2023/02/27 06:57:15;;;;;;;13.35;2.70;;;;;;;;;;5028502;28;20033;-64
2023/02/27 06:59:41;;;;;;;13.85;3.20;;;;;;;;;;5025277;28;20417;-64
2023/02/27 07:02:07;;;;;;;;;;;;;;;;;;5029121;28;20027;-64
2023/02/27 07:04:34;;;;;;;16.17;2.90;;;;;;;;;;5029429;28;19917;-63
2023/02/27 07:07:00;;;;;;;13.13;2.63;;;;;;;;;;5028583;28;20024;-63
2023/02/27 07:09:27;;;;;;;17.70;3.63;;;;;;;;;;5029853;28;20032;-64
2023/02/27 07:11:53;;;;;;;10.68;2.80;;;;;;;;;;5027860;28;20032;-63
2023/02/27 07:14:19;;;;;;;15.27;4.00;;;;;;;;;;5030843;28;20025;-64
2023/02/27 07:16:52;;;;;;;13.30;2.95;;;;;;;;;;5025010;28;20734;-64
2023/02/27 07:19:19;;;;;;;16.38;3.20;;;;;;;;;;5032809;28;20397;-64
2023/02/27 07:21:45;;;;;;;19.58;3.42;;;;;;;;;;5028485;28;20029;-63
2023/02/27 07:24:11;;;;;;;14.77;3.17;;;;;;;;;;5029363;28;20479;-62
2023/02/27 07:26:37;;;;;;;13.52;2.92;;;;;;;;;;5026484;28;20207;-64
2023/02/27 07:29:04;;;;;;;12.32;2.88;;;;;;;;;;5029788;28;20028;-64
2023/02/27 07:31:30;;;;;;;16.58;2.70;;;;;;;;;;5026049;28;20036;-64
2023/02/27 07:33:56;;;;;;;12.18;2.70;;;;;;;;;;5031684;28;20024;-62
2023/02/27 07:36:23;;;;;;;13.43;2.67;;;;;;;;;;5022868;28;20136;-62
2023/02/27 07:38:49;;;;;;;;;;;;;;;;;;5030985;28;20661;-65
2023/02/27 07:41:16;;;;;;;15.43;3.35;;;;;;;;;;5031241;28;19916;-62
2023/02/27 07:43:42;;;;;;;13.30;2.60;;;;;;;;;;5027998;28;21147;-62
2023/02/27 07:46:09;;;;;;;16.05;2.70;;;;;;;;;;5029847;28;20087;-62
2023/02/27 07:48:35;;;;;;;17.25;3.05;;;;;;;;;;5027230;28;20033;-63
2023/02/27 07:51:01;;;;;;;13.63;3.00;;;;;;;;;;5028237;28;20024;-62
2023/02/27 07:53:27;;;;;;;20.42;3.17;;;;;;;;;;5030230;28;20394;-64
2023/02/27 07:55:53;;;;;;;14.10;2.95;;;;;;;;;;5029122;28;20056;-64
2023/02/27 07:58:20;;;;;;;16.33;4.68;;;;;;;;;;5029177;28;20098;-64
2023/02/27 08:00:46;;;;;;;16.83;2.97;;;;;;;;;;5028994;28;20348;-63
2023/02/27 08:03:12;;;;;;;15.02;2.88;;;;;;;;;;5027356;28;20028;-62
2023/02/27 08:05:38;;;;;;;14.23;3.10;;;;;;;;;;5028767;28;20455;-62
2023/02/27 08:08:05;;;;;;;17.10;3.30;;;;;;;;;;5031412;28;20116;-63
2023/02/27 08:10:31;;;;;;;13.25;3.17;;;;;;;;;;5023700;28;20470;-63
2023/02/27 08:12:57;;;;;;;12.00;2.75;;;;;;;;;;5024475;28;20037;-63
2023/02/27 08:15:23;;;;;;;15.25;3.00;;;;;;;;;;5026115;28;20029;-64
2023/02/27 08:17:49;;;;;;;14.68;3.47;;;;;;;;;;5028343;28;20833;-63
2023/02/27 08:20:16;;;;;;;14.63;3.25;;;;;;;;;;5028684;28;20451;-63
2023/02/27 08:22:42;;;;;;;13.35;2.90;;;;;;;;;;5026675;28;25743;-67
2023/02/27 08:25:10;;;;;;;14.68;3.72;;;;;;;;;;5030027;28;20033;-64
2023/02/27 08:27:37;;;;;;;14.23;3.40;;;;;;;;;;5027878;28;20056;-65
2023/02/27 08:30:04;;;;;;;15.23;3.20;;;;;;;;;;5024350;28;20505;-64
2023/02/27 08:32:31;;;;;;;17.50;3.00;;;;;;;;;;5024133;28;20060;-63
2023/02/27 08:34:57;;;;;;;19.17;3.47;;;;;;;;;;5026552;28;20380;-61
2023/02/27 08:37:23;;;;;;;15.07;3.15;;;;;;;;;;5024318;28;20375;-64
2023/02/27 08:39:49;;;;;;;19.33;3.13;;;;;;;;;;5028590;28;20029;-64
2023/02/27 08:42:16;;;;;;;17.85;3.40;;;;;;;;;;5030455;28;20190;-64
2023/02/27 08:44:42;;;;;;;20.67;3.25;;;;;;;;;;5025449;28;20033;-65
2023/02/27 08:47:08;;;;;;;13.10;3.03;;;;;;;;;;5025286;28;20053;-64
2023/02/27 08:49:34;;;;;;;16.02;3.08;;;;;;;;;;5022619;28;20054;-62
2023/02/27 08:52:02;;;;;;;12.23;2.70;;;;;;;;;;5026873;28;20085;-64
2023/02/27 08:54:28;;;;;;;15.35;3.35;;;;;;;;;;5024244;28;20029;-62
2023/02/27 08:56:54;;;;;;;15.32;3.38;;;;;;;;;;5028474;28;20567;-64
2023/02/27 08:59:21;;;;;;;15.88;3.60;;;;;;;;;;5026640;28;20049;-62
2023/02/27 09:01:47;;;;;;;11.80;3.42;;;;;;;;;;5028821;28;20194;-70
2023/02/27 09:04:13;;;;;;;15.23;4.30;;;;;;;;;;5028534;28;20567;-70
2023/02/27 09:06:40;;;;;;;15.80;4.15;;;;;;;;;;5026276;28;21009;-71
2023/02/27 09:09:06;;;;;;;13.40;3.38;;;;;;;;;;5033765;28;20478;-72
2023/02/27 09:11:32;;;;;;;16.27;4.30;;;;;;;;;;5028030;28;20167;-71
2023/02/27 09:13:58;;;;;;;14.35;3.55;;;;;;;;;;5029399;28;20025;-72
2023/02/27 09:16:25;;;;;;;14.20;3.40;;;;;;;;;;5031627;28;20528;-72
2023/02/27 09:18:51;;;;;;;14.43;3.72;;;;;;;;;;5028851;28;20245;-72
2023/02/27 09:21:17;;;;;;;11.65;3.28;;;;;;;;;;5027554;28;20510;-70
2023/02/27 09:23:44;;;;;;;11.73;2.92;;;;;;;;;;5027502;28;20032;-70
2023/02/27 09:26:10;;;;;;;11.30;2.60;;;;;;;;;;5032356;28;20045;-71
2023/02/27 09:28:38;;;;;;;9.55;2.08;;;;;;;;;;5029265;28;20038;-72
2023/02/27 09:31:05;;;;;;;10.45;2.40;;;;;;;;;;5033587;28;20040;-71
2023/02/27 09:33:33;;;;;;;11.23;2.47;;;;;;;;;;5027966;28;20028;-71
2023/02/27 09:35:59;;;;;;;10.13;2.35;;;;;;;;;;5027351;28;20420;-71
2023/02/27 09:38:25;;;;;;;9.95;2.30;;;;;;;;;;5025342;28;20025;-72
2023/02/27 09:40:53;;;;;;;10.40;2.05;;;;;;;;;;5030920;28;20067;-71
2023/02/27 09:43:25;;;;;;;8.63;2.17;;;;;;;;;;5026101;28;20060;-72
2023/02/27 09:45:53;;;;;;;9.82;2.20;;;;;;;;;;5031832;28;20033;-71
2023/02/27 09:48:39;;;;;;;13.75;2.55;;;;;;;;;;5032133;28;20029;-72
2023/02/27 09:51:05;;;;;;;13.43;2.63;;;;;;;;;;5030201;28;20064;-71
2023/02/27 09:53:38;;;;;;;12.90;2.78;;;;;;;;;;5031275;28;20787;-71
2023/02/27 09:56:13;;;;;;;15.60;2.80;;;;;;;;;;5033068;28;20029;-70
2023/02/27 09:58:42;;;;;;;14.48;3.08;;;;;;;;;;5032349;28;20021;-71
2023/02/27 10:01:19;;;;;;;8.50;2.28;;;;;;;;;;5030992;28;20036;-71
2023/02/27 10:04:08;;;;;;;13.88;3.30;;;;;;;;;;5029860;28;20033;-72
2023/02/27 10:06:37;;;;;;;13.63;3.28;;;;;;;;;;5029571;28;20028;-71
2023/02/27 10:09:28;;;;;;;15.60;4.50;;;;;;;;;;5036947;28;20036;-71
2023/02/27 10:12:07;;;;;;;10.30;3.42;;;;;;;;;;5035550;28;20071;-71
2023/02/27 10:14:33;;;;;;;12.15;3.45;;;;;;;;;;5032381;28;20025;-72
2023/02/27 10:17:01;;;;;;;9.27;3.10;;;;;;;;;;5034776;28;20058;-70
2023/02/27 10:19:30;;;;;;;15.38;2.88;;;;;;;;;;5030259;28;20028;-71
2023/02/27 10:21:57;;;;;;;19.77;3.40;;;;;;;;;;5034048;28;20036;-70
2023/02/27 10:24:29;;;;;;;9.68;2.58;;;;;;;;;;5032276;28;20420;-71
2023/02/27 10:26:56;;;;;;;12.48;2.72;;;;;;;;;;5040143;28;20059;-70
2023/02/27 10:29:33;;;;;;;13.40;3.40;;;;;;;;;;5031329;28;20048;-70
2023/02/27 10:32:05;;;;;;;17.38;3.70;;;;;;;;;;5032804;28;20033;-70
2023/02/27 10:34:32;;;;;;;13.68;4.50;;;;;;;;;;5028323;28;20048;-70
2023/02/27 10:37:00;;;;;;;10.93;4.30;;;;;;;;;;5032668;28;20060;-72
2023/02/27 10:39:26;;;;;;;11.27;4.22;;;;;;;;;;5028715;28;20025;-72
2023/02/27 10:41:54;;;;;;;10.55;4.03;;;;;;;;;;5032914;28;20131;-71
2023/02/27 10:44:20;;;;;;;11.18;3.83;;;;;;;;;;5034606;28;20028;-71
2023/02/27 10:46:47;;;;;;;11.18;2.90;;;;;;;;;;5030682;28;20024;-71
2023/02/27 10:49:15;;;;;;;15.32;4.00;;;;;;;;;;5027574;28;20138;-72
2023/02/27 10:51:43;;;;;;;14.90;4.00;;;;;;;;;;5028072;28;20106;-71
2023/02/27 10:54:18;;;;;;;11.75;3.78;;;;;;;;;;5033660;28;20056;-70
2023/02/27 10:56:47;;;;;;;12.10;2.90;;;;;;;;;;5043347;28;20331;-70
2023/02/27 10:59:24;;;;;;;13.38;3.17;;;;;;;;;;5032360;28;20032;-72
2023/02/27 11:02:14;;;;;;;9.10;2.63;;;;;;;;;;5031240;28;20743;-70
2023/02/27 11:04:46;;;;;;;8.98;2.60;;;;;;;;;;5032045;28;20040;-72
2023/02/27 11:07:15;;;;;;;8.77;2.40;;;;;;;;;;5033983;28;20075;-70
2023/02/27 11:09:42;;;;;;;8.32;2.90;;;;;;;;;;5030918;28;20025;-70
2023/02/27 11:12:11;;;;;;;7.15;2.33;;;;;;;;;;5032692;28;21008;-72
2023/02/27 11:14:48;;;;;;;9.13;2.92;;;;;;;;;;5026302;28;20040;-71
2023/02/27 11:17:22;;;;;;;7.10;2.20;;;;;;;;;;5030036;28;20112;-72
2023/02/27 11:19:48;;;;;;;7.50;2.55;;;;;;;;;;5033272;28;20361;-72
2023/02/27 11:22:23;;;;;;;8.57;2.90;;;;;;;;;;5031870;28;20021;-71
2023/02/27 11:24:50;;;;;;;8.80;3.35;;;;;;;;;;5029990;28;20966;-71
2023/02/27 11:27:21;;;;;;;9.93;4.80;;;;;;;;;;5037062;28;20295;-72
2023/02/27 11:29:59;;;;;;;10.20;5.30;;;;;;;;;;5028650;28;20537;-71
2023/02/27 11:32:29;;;;;;;8.80;2.97;;;;;;;;;;5029933;28;20374;-71
2023/02/27 11:34:55;;;;;;;10.25;3.00;;;;;;;;;;5034807;28;20401;-71
2023/02/27 11:37:21;;;;;;;12.27;3.42;;;;;;;;;;5032021;28;20481;-72
2023/02/27 11:39:52;;;;;;;9.68;2.90;;;;;;;;;;5036565;28;20064;-70
2023/02/27 11:42:23;;;;;;;7.95;3.25;;;;;;;;;;5034830;28;20029;-71
2023/02/27 11:44:54;;;;;;;6.97;2.42;;;;;;;;;;5034437;28;20527;-71
2023/02/27 11:47:24;;;;;;;8.32;1.80;;;;;;;;;;5035201;28;20032;-71
2023/02/27 11:50:10;;;;;;;9.27;2.15;;;;;;;;;;5035126;28;20426;-70
2023/02/27 11:52:44;;;;;;;16.02;2.92;;;;;;;;;;5029465;28;20042;-70
2023/02/27 11:55:14;;;;;;;11.65;3.03;;;;;;;;;;5036233;28;20033;-71
2023/02/27 11:57:42;;;;;;;8.73;2.28;;;;;;;;;;5031109;28;20044;-70
2023/02/27 12:00:25;;;;;;;6.22;1.80;;;;;;;;;;5034924;28;20124;-72
2023/02/27 12:03:04;;;;;;;5.28;1.65;;;;;;;;;;5029670;28;20052;-70
2023/02/27 12:05:34;;;;;;;5.40;1.60;;;;;;;;;;5028007;28;20883;-70
2023/02/27 12:08:20;;;;;;;7.72;1.83;;;;;;;;;;5032014;28;20113;-70
2023/02/27 12:10:47;;;;;;;6.45;1.90;;;;;;;;;;5030806;28;20519;-70
2023/02/27 12:13:19;;;;;;;5.63;1.70;;;;;;;;;;5029039;28;20444;-72
2023/02/27 12:15:51;;;;;;;5.75;1.65;;;;;;;;;;5030767;28;20042;-70
2023/02/27 12:18:30;;;;;;;5.85;1.48;;;;;;;;;;5031863;28;20577;-73
2023/02/27 12:20:56;;;;;;;6.28;1.50;;;;;;;;;;5033928;28;20028;-70
2023/02/27 12:23:31;;;;;;;7.30;2.20;;;;;;;;;;5032224;28;20033;-70
2023/02/27 12:26:04;;;;;;;5.82;1.95;;;;;;;;;;5042111;28;20040;-71
2023/02/27 12:28:50;;;;;;;5.22;1.60;;;;;;;;;;5029103;28;20407;-70
2023/02/27 12:31:31;;;;;;;8.35;2.30;;;;;;;;;;5042688;28;20048;-72
2023/02/27 12:34:01;;;;;;;5.75;1.80;;;;;;;;;;5029906;28;20036;-72
2023/02/27 12:36:27;;;;;;;4.40;1.30;;;;;;;;;;5033687;28;20036;-71
2023/02/27 12:38:53;;;;;;;6.88;2.30;;;;;;;;;;5038353;28;20035;-73
2023/02/27 12:41:29;;;;;;;7.53;2.88;;;;;;;;;;5035472;28;20376;-72
2023/02/27 12:44:03;;;;;;;7.53;2.97;;;;;;;;;;5038171;28;20490;-71
2023/02/27 12:46:48;;;;;;;5.57;1.77;;;;;;;;;;5031132;28;20036;-72
2023/02/27 12:49:38;;;;;;;6.05;1.90;;;;;;;;;;5036021;28;20071;-70
2023/02/27 12:52:23;;;;;;;4.40;1.58;;;;;;;;;;5036643;28;20044;-71
2023/02/27 12:55:09;;;;;;;4.55;1.70;;;;;;;;;;5032034;28;20044;-72
2023/02/27 12:57:45;;;;;;;5.22;1.85;;;;;;;;;;5032116;28;20447;-72
2023/02/27 13:00:13;;;;;;;4.68;1.42;;;;;;;;;;5039748;28;20114;-72
2023/02/27 13:02:40;;;;;;;4.22;1.42;;;;;;;;;;5032130;28;20037;-73
2023/02/27 13:05:09;;;;;;;6.78;2.03;;;;;;;;;;5030213;28;20033;-72
2023/02/27 13:07:38;;;;;;;7.60;2.20;;;;;;;;;;5032355;28;20389;-71
2023/02/27 13:10:12;;;;;;;6.75;2.03;;;;;;;;;;5030199;28;20215;-72
2023/02/27 13:12:45;;;;;;;6.15;2.10;;;;;;;;;;5031757;28;20048;-71
2023/02/27 13:15:18;;;;;;;6.22;2.03;;;;;;;;;;5033669;28;20116;-72
2023/02/27 13:17:53;;;;;;;4.88;1.63;;;;;;;;;;5034765;28;20032;-72
2023/02/27 13:20:20;;;;;;;6.97;2.38;;;;;;;;;;5034106;28;20033;-74
2023/02/27 13:23:04;;;;;;;7.55;3.03;;;;;;;;;;5030392;28;20569;-73
2023/02/27 13:25:30;;;;;;;13.07;7.32;;;;;;;;;;5032077;28;20486;-71
2023/02/27 13:28:00;;;;;;;11.48;5.57;;;;;;;;;;5035742;28;20021;-73
2023/02/27 13:30:35;;;;;;;11.00;4.78;;;;;;;;;;5034070;28;20366;-73
2023/02/27 13:33:13;;;;;;;9.60;4.35;;;;;;;;;;5031700;28;20108;-73
2023/02/27 13:35:42;;;;;;;6.53;2.60;;;;;;;;;;5028094;28;20589;-73
2023/02/27 13:38:27;;;;;;;7.35;2.70;;;;;;;;;;5032332;28;20097;-73
2023/02/27 13:40:53;;;;;;;8.27;2.92;;;;;;;;;;5033889;28;20071;-73
2023/02/27 13:43:22;;;;;;;7.30;2.50;;;;;;;;;;5031912;28;20641;-71
2023/02/27 13:45:51;;;;;;;5.50;1.85;;;;;;;;;;5032273;28;20067;-73
2023/02/27 13:48:37;;;;;;;6.00;1.60;;;;;;;;;;5034192;28;20029;-71
2023/02/27 13:51:03;;;;;;;4.55;1.60;;;;;;;;;;5031748;28;20021;-73
2023/02/27 13:53:29;;;;;;;6.85;2.30;;;;;;;;;;5031158;28;20035;-72
2023/02/27 13:56:19;;;;;;;4.85;1.70;;;;;;;;;;5031433;28;20095;-72
2023/02/27 13:58:45;;;;;;;5.25;1.50;;;;;;;;;;5033856;28;20033;-72
2023/02/27 14:01:16;;;;;;;4.50;1.58;;;;;;;;;;5037221;28;20032;-72
2023/02/27 14:03:42;;;;;;;5.20;1.80;;;;;;;;;;5028550;28;20029;-70
2023/02/27 14:06:10;;;;;;;5.95;2.08;;;;;;;;;;5033039;28;20486;-71
2023/02/27 14:08:49;;;;;;;4.70;1.40;;;;;;;;;;5029828;28;20406;-73
2023/02/27 14:11:16;;;;;;;4.82;1.70;;;;;;;;;;5035327;28;20129;-71
2023/02/27 14:13:45;;;;;;;9.18;2.03;;;;;;;;;;5031673;28;20566;-70
2023/02/27 14:16:12;;;;;;;4.57;1.52;;;;;;;;;;5031853;28;20175;-70
2023/02/27 14:18:51;;;;;;;3.53;1.20;;;;;;;;;;5029663;28;20811;-72
2023/02/27 14:21:36;;;;;;;4.50;1.50;;;;;;;;;;5030194;28;20036;-70
2023/02/27 14:24:02;;;;;;;4.80;1.30;;;;;;;;;;5031591;28;20017;-70
2023/02/27 14:26:28;;;;;;;9.15;3.58;;;;;;;;;;5027173;28;20161;-69
2023/02/27 14:28:56;;;;;;;7.93;2.70;;;;;;;;;;5032053;28;20039;-72
2023/02/27 14:31:29;;;;;;;7.72;2.88;;;;;;;;;;5033170;28;20123;-70
2023/02/27 14:33:58;;;;;;;8.27;2.58;;;;;;;;;;5030431;28;20370;-72
2023/02/27 14:36:29;;;;;;;7.22;2.40;;;;;;;;;;5034347;28;20045;-71
2023/02/27 14:38:59;;;;;;;7.32;2.60;;;;;;;;;;5032726;28;20057;-71
2023/02/27 14:41:28;;;;;;;7.57;3.22;;;;;;;;;;5033364;28;20090;-71
2023/02/27 14:43:56;;;;;;;5.63;2.20;;;;;;;;;;5030338;28;20087;-71
2023/02/27 14:46:28;;;;;;;5.95;1.83;;;;;;;;;;5036235;28;20494;-72
2023/02/27 14:48:58;;;;;;;7.20;2.20;;;;;;;;;;5030169;28;20271;-72
2023/02/27 14:51:25;;;;;;;9.65;4.10;;;;;;;;;;5031246;28;20473;-72
2023/02/27 14:54:10;;;;;;;10.07;4.20;;;;;;;;;;5031824;28;20550;-70